Penryn, United Kingdom
Current Conditions -  °F | °C
As of 12:50 PM on Friday 19 Dec 2014 (Local Time) from EGDR Reporting Station
Broken Clouds Broken Clouds  
Wind Chill: 42°   Ceiling: 3800
Heat Index: 48°   Visibility: 6mi
Dew Point: 37°   Wind: 15mph
Humidity: 66%   Direction: 290°WNW
Pressure: 30.18"   Gusts: NA
Location:  50.17°N, 5.1°W
Report Text: EGDR 191250Z 29013KT 9999 FEW022 BKN038 09/03 Q1022 BLU
Loading
Personal Weather Stations






























Interactive Weather Map New forecast layout! Learn more

10-Day Weather Forecast

Advertisements
Track Severe Weather on mobile